Time;durP1;ratioP1;P1;durP2;ratioP2;P2;SDS_P1;SDS_P2;PMS_P1;PMS_P2;Temp;Humidity;BMP_temperature;BMP_pressure;BME280_temperature;BME280_humidity;BME280_pressure;Samples;Min_cycle;Max_cycle;Signal;HPM_P1;HPM_P2
2021/12/30 00:01:29;;;;;;;24.38;5.30;;;8.00;99.90;;;;;;5069629;28;20515;-66
2021/12/30 00:03:55;;;;;;;32.97;4.57;;;8.00;99.90;;;;;;5068763;28;20057;-66
2021/12/30 00:06:23;;;;;;;35.72;5.53;;;7.90;99.90;;;;;;5069949;28;20049;-66
2021/12/30 00:08:51;;;;;;;27.67;5.55;;;8.00;99.90;;;;;;5068715;28;20049;-66
2021/12/30 00:11:17;;;;;;;16.77;4.97;;;7.90;99.90;;;;;;5071608;28;20194;-66
2021/12/30 00:13:45;;;;;;;25.58;5.43;;;8.00;99.90;;;;;;5072297;28;20123;-66
2021/12/30 00:16:16;;;;;;;23.40;5.32;;;7.80;99.90;;;;;;5072410;28;20079;-66
2021/12/30 00:18:42;;;;;;;32.60;6.20;;;8.00;99.90;;;;;;5072638;28;20101;-66
2021/12/30 00:21:08;;;;;;;33.70;7.03;;;8.00;99.90;;;;;;5073883;28;20044;-66
2021/12/30 00:23:34;;;;;;;29.80;5.65;;;7.90;99.90;;;;;;5073489;28;20052;-66
2021/12/30 00:26:00;;;;;;;36.42;6.38;;;8.00;99.90;;;;;;5072981;28;20060;-66
2021/12/30 00:28:26;;;;;;;28.20;6.32;;;8.00;99.90;;;;;;5072165;28;20049;-66
2021/12/30 00:30:52;;;;;;;33.40;6.45;;;8.10;99.90;;;;;;5072069;28;20067;-66
2021/12/30 00:33:19;;;;;;;27.60;5.85;;;8.00;99.90;;;;;;5085527;28;20047;-67
2021/12/30 00:35:45;;;;;;;41.22;7.47;;;8.20;99.90;;;;;;5093397;28;20074;-67
2021/12/30 00:38:11;;;;;;;30.30;5.82;;;8.10;99.90;;;;;;5087632;28;20073;-66
2021/12/30 00:40:37;;;;;;;31.58;5.97;;;8.10;99.90;;;;;;5105824;28;20108;-66
2021/12/30 00:43:04;;;;;;;41.67;7.43;;;8.20;99.90;;;;;;5095853;28;20083;-66
2021/12/30 00:45:31;;;;;;;40.35;6.43;;;8.10;99.90;;;;;;5113892;28;20044;-66
2021/12/30 00:47:57;;;;;;;37.67;7.43;;;8.10;99.90;;;;;;5111796;28;20043;-66
2021/12/30 00:50:24;;;;;;;40.00;6.60;;;8.10;99.90;;;;;;5112523;28;20047;-66
2021/12/30 00:52:50;;;;;;;33.95;6.22;;;8.10;99.90;;;;;;5112144;28;20048;-66
2021/12/30 00:55:15;;;;;;;31.45;7.22;;;8.10;99.90;;;;;;5111667;28;20052;-66
2021/12/30 00:57:42;;;;;;;35.72;6.20;;;8.20;99.90;;;;;;5112234;28;20126;-66
2021/12/30 01:00:12;;;;;;;32.67;6.40;;;8.10;99.90;;;;;;5113561;28;20035;-67
2021/12/30 01:02:38;;;;;;;32.03;6.45;;;8.00;99.90;;;;;;5129553;27;20044;-66
2021/12/30 01:05:04;;;;;;;26.77;7.15;;;8.00;99.90;;;;;;5112364;28;20158;-66
2021/12/30 01:07:30;;;;;;;50.50;7.53;;;8.00;99.90;;;;;;5111371;28;20050;-66
2021/12/30 01:09:55;;;;;;;44.33;8.05;;;8.10;99.90;;;;;;5112052;28;20044;-66
2021/12/30 01:12:22;;;;;;;28.67;7.20;;;8.00;99.90;;;;;;5113556;28;20055;-66
2021/12/30 01:14:48;;;;;;;35.50;7.25;;;7.90;99.90;;;;;;5111320;28;20062;-66
2021/12/30 01:17:22;;;;;;;43.65;7.55;;;7.90;99.90;;;;;;5111152;28;20051;-66
2021/12/30 01:19:50;;;;;;;35.30;5.93;;;8.00;99.90;;;;;;5112841;28;20105;-66
2021/12/30 01:22:24;;;;;;;45.40;7.38;;;8.00;99.90;;;;;;5110853;28;20105;-66
2021/12/30 01:24:51;;;;;;;36.63;7.60;;;7.90;99.90;;;;;;5112981;28;20125;-66
2021/12/30 01:27:18;;;;;;;38.50;7.63;;;7.90;99.90;;;;;;5111936;28;20482;-66
2021/12/30 01:29:44;;;;;;;45.85;7.85;;;7.90;99.90;;;;;;5111041;28;20047;-66
2021/12/30 01:32:10;;;;;;;37.25;7.45;;;8.00;99.90;;;;;;5113166;27;20118;-66
2021/12/30 01:34:36;;;;;;;45.85;8.02;;;7.90;99.90;;;;;;5112746;28;20146;-66
2021/12/30 01:37:04;;;;;;;36.15;8.85;;;8.00;99.90;;;;;;5110938;28;20036;-66
2021/12/30 01:39:33;;;;;;;36.58;6.90;;;7.90;99.90;;;;;;5111597;28;20051;-66
2021/12/30 01:41:59;;;;;;;45.13;8.32;;;8.00;99.90;;;;;;5111613;28;20047;-66
2021/12/30 01:44:28;;;;;;;53.03;9.20;;;8.00;99.90;;;;;;5110820;28;20047;-66
2021/12/30 01:46:54;;;;;;;39.20;7.13;;;8.00;99.90;;;;;;5112762;28;20443;-66
2021/12/30 01:49:21;;;;;;;35.53;8.32;;;8.10;99.90;;;;;;5111687;28;20043;-66
2021/12/30 01:51:49;;;;;;;36.45;7.30;;;8.00;99.90;;;;;;5111977;28;20058;-66
2021/12/30 01:54:15;;;;;;;36.13;8.48;;;7.90;99.90;;;;;;5111398;28;20047;-66
2021/12/30 01:56:41;;;;;;;32.92;7.20;;;7.90;99.90;;;;;;5110346;28;20123;-66
2021/12/30 01:59:07;;;;;;;28.88;6.25;;;7.90;99.90;;;;;;5111317;28;20058;-66
2021/12/30 02:01:33;;;;;;;28.40;6.65;;;7.80;99.90;;;;;;5112304;28;20043;-66
2021/12/30 02:03:58;;;;;;;36.53;7.65;;;7.80;99.90;;;;;;5111774;28;20045;-66
2021/12/30 02:06:24;;;;;;;40.95;8.35;;;7.90;99.90;;;;;;5111128;28;20155;-66
2021/12/30 02:08:51;;;;;;;37.85;7.25;;;7.80;99.90;;;;;;5112152;28;20044;-67
2021/12/30 02:11:21;;;;;;;33.58;6.45;;;7.70;99.90;;;;;;5110603;28;20561;-66
2021/12/30 02:13:52;;;;;;;33.08;6.22;;;7.60;99.90;;;;;;5110656;28;20050;-66
2021/12/30 02:16:20;;;;;;;31.15;7.18;;;7.70;99.90;;;;;;5111147;28;20386;-66
2021/12/30 02:18:45;;;;;;;40.05;6.55;;;7.70;99.90;;;;;;5109680;28;20055;-66
2021/12/30 02:21:11;;;;;;;31.23;6.65;;;7.60;99.90;;;;;;5110842;28;20071;-66
2021/12/30 02:23:38;;;;;;;22.73;6.25;;;7.70;99.90;;;;;;5111935;28;20163;-66
2021/12/30 02:26:09;;;;;;;38.35;7.55;;;7.70;99.90;;;;;;5109995;28;20044;-66
2021/12/30 02:28:37;;;;;;;28.70;6.63;;;7.60;99.90;;;;;;5111893;28;20129;-66
2021/12/30 02:31:15;;;;;;;39.45;7.05;;;7.50;99.90;;;;;;5110556;28;20047;-66
2021/12/30 02:33:42;;;;;;;23.73;5.85;;;7.40;99.90;;;;;;5109215;28;20051;-66
2021/12/30 02:36:08;;;;;;;35.40;8.20;;;7.50;99.90;;;;;;5112078;28;20402;-66
2021/12/30 02:38:35;;;;;;;30.63;7.05;;;7.50;99.90;;;;;;5110292;28;20059;-66
2021/12/30 02:41:02;;;;;;;41.55;7.13;;;7.30;99.90;;;;;;5109865;28;20486;-66
2021/12/30 02:43:30;;;;;;;35.75;7.15;;;7.50;99.90;;;;;;5110376;28;20490;-66
2021/12/30 02:45:57;;;;;;;36.35;6.80;;;7.40;99.90;;;;;;5109834;28;20071;-66
2021/12/30 02:48:25;;;;;;;32.67;6.07;;;7.40;99.90;;;;;;5111815;28;20130;-66
2021/12/30 02:50:54;;;;;;;40.28;7.38;;;7.40;99.90;;;;;;5109715;28;20059;-66
2021/12/30 02:53:20;;;;;;;32.75;6.45;;;7.40;99.90;;;;;;5126720;27;20051;-66
2021/12/30 02:55:47;;;;;;;39.65;7.00;;;7.30;99.90;;;;;;5111246;28;20540;-66
2021/12/30 02:58:13;;;;;;;38.97;6.10;;;7.40;99.90;;;;;;5108556;28;20049;-66
2021/12/30 03:00:40;;;;;;;35.58;6.00;;;7.40;99.90;;;;;;5104551;28;20043;-67
2021/12/30 03:03:06;;;;;;;27.60;6.55;;;7.40;99.90;;;;;;5093558;28;20039;-66
2021/12/30 03:05:32;;;;;;;29.17;6.68;;;7.40;99.90;;;;;;5103670;28;20135;-66
2021/12/30 03:07:57;;;;;;;34.72;7.43;;;7.30;99.90;;;;;;5099526;28;20050;-66
2021/12/30 03:10:26;;;;;;;28.27;6.68;;;7.30;99.90;;;;;;5098950;28;20044;-66
2021/12/30 03:13:03;;;;;;;51.67;9.20;;;7.30;99.90;;;;;;5109691;28;20131;-66
2021/12/30 03:15:29;;;;;;;30.20;7.82;;;7.30;99.90;;;;;;5108948;28;20059;-66
2021/12/30 03:17:55;;;;;;;35.85;6.65;;;7.30;99.90;;;;;;5109986;28;20039;-66
2021/12/30 03:20:21;;;;;;;29.15;6.65;;;7.50;99.90;;;;;;5109538;28;20130;-66
2021/12/30 03:22:46;;;;;;;29.75;7.90;;;7.40;99.90;;;;;;5108872;28;20169;-66
2021/12/30 03:25:14;;;;;;;40.42;8.13;;;7.50;99.90;;;;;;5109950;28;20039;-66
2021/12/30 03:27:40;;;;;;;35.80;7.18;;;7.40;99.90;;;;;;5111072;28;20044;-66
2021/12/30 03:30:10;;;;;;;38.05;8.80;;;7.50;99.90;;;;;;5109128;28;20093;-66
2021/12/30 03:32:36;;;;;;;39.63;9.02;;;7.60;99.90;;;;;;5109707;28;20040;-66
2021/12/30 03:35:02;;;;;;;33.13;8.63;;;7.60;99.90;;;;;;5102965;28;20494;-66
2021/12/30 03:37:28;;;;;;;45.15;8.68;;;7.50;99.90;;;;;;5096756;28;20047;-66
2021/12/30 03:39:53;;;;;;;35.15;8.68;;;7.50;99.90;;;;;;5107608;28;20052;-66
2021/12/30 03:42:19;;;;;;;39.58;8.93;;;7.60;99.90;;;;;;5089093;28;20048;-66
2021/12/30 03:44:45;;;;;;;49.03;9.85;;;7.50;99.90;;;;;;5090706;28;20117;-66
2021/12/30 03:47:15;;;;;;;46.42;9.35;;;7.70;99.90;;;;;;5094831;28;20062;-66
2021/12/30 03:49:44;;;;;;;40.88;9.15;;;7.70;99.90;;;;;;5093864;28;20684;-66
2021/12/30 03:52:19;;;;;;;45.63;9.23;;;7.80;99.90;;;;;;5093322;28;20052;-66
2021/12/30 03:54:44;;;;;;;40.00;9.50;;;7.90;99.90;;;;;;5094626;28;20052;-66
2021/12/30 03:57:10;;;;;;;43.40;8.50;;;7.80;99.90;;;;;;5092837;28;20062;-66
2021/12/30 03:59:36;;;;;;;46.67;10.38;;;7.70;99.90;;;;;;5110076;28;20044;-66
2021/12/30 04:02:01;;;;;;;41.92;8.65;;;7.70;99.90;;;;;;5093447;28;20552;-66
2021/12/30 04:04:27;;;;;;;28.65;6.97;;;7.70;99.90;;;;;;5092475;28;20055;-66
2021/12/30 04:06:52;;;;;;;47.17;10.13;;;7.90;99.90;;;;;;5094053;28;20040;-66
2021/12/30 04:09:18;;;;;;;39.53;8.80;;;7.90;99.90;;;;;;5093020;28;20040;-66
2021/12/30 04:11:44;;;;;;;38.60;8.77;;;7.80;99.90;;;;;;5093504;28;20128;-66
2021/12/30 04:14:10;;;;;;;37.35;7.82;;;7.90;99.90;;;;;;5093037;28;20138;-66
2021/12/30 04:16:36;;;;;;;33.10;7.20;;;7.80;99.90;;;;;;5093998;28;20081;-66
2021/12/30 04:19:02;;;;;;;37.33;9.00;;;7.90;99.90;;;;;;5091981;28;20419;-66
2021/12/30 04:21:28;;;;;;;41.13;8.40;;;7.90;99.90;;;;;;5093115;28;20052;-66
2021/12/30 04:23:54;;;;;;;37.90;9.02;;;7.80;99.90;;;;;;5092740;28;20557;-66
2021/12/30 04:26:19;;;;;;;40.08;9.98;;;7.80;99.90;;;;;;5092091;28;20070;-66
2021/12/30 04:28:46;;;;;;;50.33;9.27;;;8.10;99.90;;;;;;5093794;28;20055;-66
2021/12/30 04:31:12;;;;;;;36.58;8.95;;;8.10;99.90;;;;;;5093313;28;20142;-66
2021/12/30 04:33:37;;;;;;;46.45;9.05;;;8.00;99.90;;;;;;5092317;28;20056;-66
2021/12/30 04:36:04;;;;;;;46.13;8.60;;;8.20;99.90;;;;;;5093753;28;20036;-66
2021/12/30 04:38:31;;;;;;;34.08;8.30;;;8.30;99.90;;;;;;5093159;28;20066;-66
2021/12/30 04:40:58;;;;;;;37.78;9.13;;;8.30;99.90;;;;;;5092377;28;20101;-66
2021/12/30 04:43:24;;;;;;;32.55;9.15;;;8.20;99.90;;;;;;5093815;28;20048;-66
2021/12/30 04:45:50;;;;;;;35.55;8.45;;;8.20;99.90;;;;;;5090737;28;20091;-66
2021/12/30 04:48:17;;;;;;;36.58;8.80;;;8.30;99.90;;;;;;5094621;28;20040;-66
2021/12/30 04:50:45;;;;;;;49.10;10.23;;;8.20;99.90;;;;;;5112337;28;20047;-66
2021/12/30 04:53:11;;;;;;;44.17;10.80;;;8.40;99.90;;;;;;5113300;28;20079;-66
2021/12/30 04:55:37;;;;;;;61.00;12.55;;;8.30;99.90;;;;;;5113233;28;20082;-66
2021/12/30 04:58:03;;;;;;;48.30;10.35;;;8.40;99.90;;;;;;5112286;28;20079;-66
2021/12/30 05:00:28;;;;;;;43.45;9.55;;;8.50;99.90;;;;;;5112759;28;20109;-66
2021/12/30 05:03:11;;;;;;;42.22;12.43;;;8.50;99.90;;;;;;5113641;28;20478;-67
2021/12/30 05:05:51;;;;;;;47.17;11.63;;;8.60;99.90;;;;;;5113547;27;20043;-66
2021/12/30 05:08:20;;;;;;;51.60;11.40;;;8.60;99.90;;;;;;5111631;28;20531;-67
2021/12/30 05:10:46;;;;;;;56.85;13.40;;;8.60;99.90;;;;;;5111798;28;20051;-66
2021/12/30 05:13:12;;;;;;;54.70;13.55;;;8.90;99.90;;;;;;5113623;28;20071;-67
2021/12/30 05:15:39;;;;;;;79.40;17.52;;;8.90;99.90;;;;;;5111021;28;20494;-66
2021/12/30 05:18:11;;;;;;;61.80;14.90;;;9.20;99.90;;;;;;5112309;28;20138;-66
2021/12/30 05:20:38;;;;;;;56.53;14.57;;;9.30;99.90;;;;;;5111097;28;20056;-66
2021/12/30 05:23:04;;;;;;;58.17;14.25;;;9.40;99.90;;;;;;5106083;28;20470;-66
2021/12/30 05:25:30;;;;;;;58.42;13.18;;;9.30;99.90;;;;;;5091600;28;20044;-66
2021/12/30 05:27:57;;;;;;;67.75;15.45;;;9.50;99.90;;;;;;5105916;28;20090;-66
2021/12/30 05:30:23;;;;;;;53.55;13.75;;;9.50;99.90;;;;;;5113108;28;20131;-66
2021/12/30 05:32:51;;;;;;;56.97;15.43;;;9.30;99.90;;;;;;5106573;28;20051;-66
2021/12/30 05:35:16;;;;;;;58.42;16.77;;;9.50;99.90;;;;;;5095095;28;20461;-66
2021/12/30 05:37:43;;;;;;;65.75;15.75;;;9.30;99.90;;;;;;5106981;28;20071;-67
2021/12/30 05:40:12;;;;;;;60.78;18.05;;;9.60;99.90;;;;;;5111088;28;20047;-66
2021/12/30 05:42:38;;;;;;;66.40;19.40;;;9.50;99.90;;;;;;5091385;28;20043;-66
2021/12/30 05:45:05;;;;;;;57.50;17.48;;;9.60;99.90;;;;;;5091216;28;20136;-66
2021/12/30 05:47:31;;;;;;;74.70;20.58;;;9.60;99.90;;;;;;5100504;28;20074;-66
2021/12/30 05:49:56;;;;;;;44.72;14.68;;;9.50;99.90;;;;;;5110684;28;20043;-67
2021/12/30 05:52:22;;;;;;;49.17;17.05;;;9.60;99.90;;;;;;5111469;28;20047;-66
2021/12/30 05:54:47;;;;;;;41.22;15.93;;;9.70;99.90;;;;;;5105200;28;20048;-67
2021/12/30 05:57:13;;;;;;;55.22;16.95;;;9.80;99.90;;;;;;5105931;28;20048;-66
2021/12/30 05:59:39;;;;;;;40.80;13.32;;;9.80;99.90;;;;;;5101051;28;20055;-66
2021/12/30 06:02:05;;;;;;;40.40;13.98;;;9.70;99.90;;;;;;5093864;28;20055;-66
2021/12/30 06:04:30;;;;;;;39.58;14.40;;;9.90;99.90;;;;;;5108986;28;20078;-67
2021/12/30 06:06:56;;;;;;;35.15;11.10;;;9.90;99.90;;;;;;5107031;28;20100;-67
2021/12/30 06:09:24;;;;;;;38.10;12.75;;;9.80;99.90;;;;;;5100848;28;20542;-67
2021/12/30 06:11:50;;;;;;;35.80;12.88;;;9.80;99.90;;;;;;5110044;28;20126;-67
2021/12/30 06:14:15;;;;;;;42.60;14.20;;;9.90;99.90;;;;;;5112440;28;20126;-66
2021/12/30 06:16:41;;;;;;;34.05;14.35;;;9.80;99.90;;;;;;5110186;28;20509;-67
2021/12/30 06:19:07;;;;;;;37.75;14.35;;;9.80;99.90;;;;;;5112127;28;20051;-67
2021/12/30 06:21:32;;;;;;;29.77;12.65;;;10.00;99.90;;;;;;5110525;28;20421;-67
2021/12/30 06:23:58;;;;;;;34.40;15.85;;;10.00;99.90;;;;;;5111486;28;20036;-67
2021/12/30 06:26:24;;;;;;;22.50;10.85;;;10.00;99.90;;;;;;5110968;28;20062;-67
2021/12/30 06:28:49;;;;;;;36.20;13.43;;;10.10;99.90;;;;;;5110342;28;20048;-67
2021/12/30 06:31:15;;;;;;;35.75;14.43;;;10.00;99.90;;;;;;5109972;28;20054;-67
2021/12/30 06:33:41;;;;;;;41.97;12.90;;;10.20;99.90;;;;;;5107855;28;20067;-67
2021/12/30 06:36:07;;;;;;;48.88;16.95;;;10.20;99.90;;;;;;5092709;28;20440;-67
2021/12/30 06:38:33;;;;;;;44.55;15.00;;;10.10;99.90;;;;;;5092080;28;20501;-67
2021/12/30 06:40:59;;;;;;;48.17;17.02;;;10.10;99.90;;;;;;5111265;28;20173;-67
2021/12/30 06:43:25;;;;;;;40.25;16.05;;;10.20;99.90;;;;;;5110467;28;20468;-67
2021/12/30 06:45:51;;;;;;;42.60;15.88;;;10.30;99.90;;;;;;5104127;28;20051;-67
2021/12/30 06:48:16;;;;;;;47.20;16.50;;;10.30;99.90;;;;;;5103889;28;20051;-67
2021/12/30 06:50:51;;;;;;;45.03;18.30;;;10.30;99.90;;;;;;5091652;28;20055;-67
2021/12/30 06:53:21;;;;;;;38.47;15.07;;;10.40;99.90;;;;;;5100953;28;20054;-67
2021/12/30 06:55:48;;;;;;;43.50;15.27;;;10.40;99.90;;;;;;5095932;28;20509;-67
2021/12/30 06:58:14;;;;;;;36.92;16.80;;;10.50;99.90;;;;;;5105148;28;20053;-67
2021/12/30 07:00:40;;;;;;;71.30;16.85;;;10.50;99.90;;;;;;5097787;28;20101;-67
2021/12/30 07:03:06;;;;;;;42.90;15.00;;;10.40;99.90;;;;;;5089785;28;20060;-67
2021/12/30 07:05:32;;;;;;;38.58;13.30;;;10.40;99.90;;;;;;5089459;28;20040;-67
2021/12/30 07:07:59;;;;;;;27.50;13.35;;;10.50;99.90;;;;;;5106381;28;20076;-67
2021/12/30 07:10:25;;;;;;;33.42;14.18;;;10.40;99.90;;;;;;5088718;28;20101;-67
2021/12/30 07:12:50;;;;;;;26.67;12.00;;;10.50;99.90;;;;;;5105512;28;20043;-67
2021/12/30 07:15:16;;;;;;;40.60;13.05;;;10.40;99.90;;;;;;5110706;28;20520;-67
2021/12/30 07:17:42;;;;;;;28.88;11.60;;;10.50;99.90;;;;;;5109350;28;20161;-67
2021/12/30 07:20:09;;;;;;;87.15;15.63;;;10.40;99.90;;;;;;5089688;28;20062;-67
2021/12/30 07:22:35;;;;;;;29.20;12.90;;;10.50;99.90;;;;;;5089467;28;20134;-67
2021/12/30 07:25:02;;;;;;;23.45;10.45;;;10.60;99.90;;;;;;5089872;28;20398;-67
2021/12/30 07:27:27;;;;;;;15.40;8.73;;;10.70;99.90;;;;;;5089154;28;20083;-67
2021/12/30 07:29:53;;;;;;;18.50;9.20;;;10.60;99.90;;;;;;5089309;28;20075;-67
2021/12/30 07:32:18;;;;;;;18.52;8.82;;;10.60;99.90;;;;;;5090761;28;20048;-67
2021/12/30 07:34:45;;;;;;;16.15;7.78;;;10.50;99.90;;;;;;5088382;28;20040;-67
2021/12/30 07:37:14;;;;;;;12.88;7.10;;;10.40;99.90;;;;;;5089424;28;20082;-67
2021/12/30 07:39:44;;;;;;;8.55;5.68;;;10.60;99.90;;;;;;5095239;28;20051;-67
2021/12/30 07:42:10;;;;;;;17.27;7.53;;;10.60;99.90;;;;;;5095758;28;20138;-67
2021/12/30 07:44:36;;;;;;;12.25;6.28;;;10.40;99.90;;;;;;5090125;28;20142;-67
2021/12/30 07:47:02;;;;;;;11.32;6.30;;;10.50;99.90;;;;;;5086761;28;20041;-67
2021/12/30 07:49:27;;;;;;;11.07;6.65;;;10.40;99.90;;;;;;5095454;28;20036;-67
2021/12/30 07:51:53;;;;;;;11.80;5.93;;;10.50;99.90;;;;;;5095884;28;20085;-67
2021/12/30 07:54:19;;;;;;;10.13;5.93;;;10.60;99.90;;;;;;5109547;28;20051;-67
2021/12/30 07:56:45;;;;;;;13.10;6.68;;;10.70;99.90;;;;;;5125693;28;20055;-67
2021/12/30 07:59:11;;;;;;;9.43;5.97;;;10.60;99.90;;;;;;5095893;28;20036;-67
2021/12/30 08:01:36;;;;;;;9.02;6.00;;;10.70;99.90;;;;;;5081142;28;20052;-67
2021/12/30 08:04:02;;;;;;;8.93;4.90;;;10.70;99.90;;;;;;5097095;28;20097;-67
2021/12/30 08:06:28;;;;;;;16.83;7.03;;;10.70;99.90;;;;;;5094415;28;20047;-67
2021/12/30 08:08:55;;;;;;;9.23;6.03;;;10.70;99.90;;;;;;5100892;28;20065;-67
2021/12/30 08:11:21;;;;;;;9.18;5.97;;;10.80;99.90;;;;;;5090002;28;20047;-67
2021/12/30 08:13:47;;;;;;;7.50;5.75;;;10.80;99.90;;;;;;5089095;28;20044;-67
2021/12/30 08:16:13;;;;;;;7.07;5.70;;;10.90;99.90;;;;;;5087468;28;20055;-67
2021/12/30 08:18:40;;;;;;;5.03;4.53;;;10.70;99.90;;;;;;5080214;28;20142;-67
2021/12/30 08:21:06;;;;;;;7.25;5.72;;;10.80;99.90;;;;;;5091112;28;20058;-67
2021/12/30 08:23:31;;;;;;;8.00;5.53;;;10.80;99.90;;;;;;5087449;28;20134;-67
2021/12/30 08:25:57;;;;;;;10.05;6.63;;;10.70;99.90;;;;;;5102029;28;20549;-67
2021/12/30 08:28:24;;;;;;;8.75;6.78;;;10.80;99.90;;;;;;5107825;28;20379;-67
2021/12/30 08:30:51;;;;;;;12.32;8.95;;;10.90;99.90;;;;;;5086215;28;20222;-67
2021/12/30 08:33:17;;;;;;;7.38;6.03;;;10.90;99.90;;;;;;5091218;28;20140;-67
2021/12/30 08:35:43;;;;;;;8.50;5.90;;;10.80;99.90;;;;;;5100924;28;20047;-67
2021/12/30 08:38:09;;;;;;;14.23;8.68;;;11.00;99.90;;;;;;5087013;28;20049;-67
2021/12/30 08:40:35;;;;;;;64.80;17.42;;;11.00;99.90;;;;;;5093171;28;20051;-67
2021/12/30 08:43:00;;;;;;;15.13;8.98;;;10.80;99.90;;;;;;5092497;28;20046;-67
2021/12/30 08:45:26;;;;;;;15.10;9.00;;;11.00;99.90;;;;;;5100737;28;20032;-67
2021/12/30 08:47:51;;;;;;;10.15;6.68;;;11.10;99.90;;;;;;5112421;28;20055;-67
2021/12/30 08:50:17;;;;;;;12.15;6.65;;;11.00;99.90;;;;;;5113950;28;20043;-67
2021/12/30 08:52:44;;;;;;;12.98;7.28;;;11.10;99.90;;;;;;5102151;28;20046;-67
2021/12/30 08:55:10;;;;;;;10.55;6.57;;;11.10;99.90;;;;;;5108233;28;20051;-68
2021/12/30 08:57:40;;;;;;;11.73;6.65;;;11.00;99.90;;;;;;5111510;28;20096;-67
2021/12/30 09:00:12;;;;;;;13.20;5.35;;;11.10;99.90;;;;;;5091400;28;20048;-67
2021/12/30 09:02:38;;;;;;;37.47;7.65;;;11.10;99.90;;;;;;5091627;28;20475;-67
2021/12/30 09:05:04;;;;;;;11.05;4.95;;;11.00;99.90;;;;;;5092080;28;20117;-67
2021/12/30 09:07:32;;;;;;;9.20;4.13;;;11.00;99.90;;;;;;5095866;28;20048;-67
2021/12/30 09:09:58;;;;;;;8.25;4.15;;;10.90;99.90;;;;;;5092351;28;20063;-67
2021/12/30 09:12:24;;;;;;;8.18;3.78;;;11.00;99.90;;;;;;5094131;28;20044;-66
2021/12/30 09:14:50;;;;;;;8.45;3.85;;;11.00;99.90;;;;;;5097375;28;20054;-67
2021/12/30 09:17:16;;;;;;;11.85;4.80;;;11.10;99.90;;;;;;5109498;27;20584;-66
2021/12/30 09:19:41;;;;;;;10.38;4.47;;;11.00;99.90;;;;;;5100744;28;20126;-67
2021/12/30 09:22:07;;;;;;;21.33;4.80;;;11.00;99.90;;;;;;5108397;28;20047;-66
2021/12/30 09:24:33;;;;;;;14.02;4.53;;;11.10;99.90;;;;;;5107534;28;20054;-67
2021/12/30 09:27:00;;;;;;;13.18;4.35;;;11.10;99.90;;;;;;5113103;28;20604;-67
2021/12/30 09:29:26;;;;;;;12.20;3.78;;;11.20;99.90;;;;;;5098043;28;20509;-66
2021/12/30 09:31:52;;;;;;;12.13;3.97;;;11.20;99.90;;;;;;5087780;28;20099;-66
2021/12/30 09:34:20;;;;;;;19.88;5.32;;;11.20;99.90;;;;;;5094340;28;20189;-66
2021/12/30 09:36:46;;;;;;;16.98;3.85;;;11.10;99.90;;;;;;5091788;28;20126;-66
2021/12/30 09:39:14;;;;;;;13.23;3.70;;;11.30;99.90;;;;;;5090624;28;20063;-66
2021/12/30 09:41:44;;;;;;;19.85;4.60;;;11.20;99.90;;;;;;5088913;28;20044;-67
2021/12/30 09:44:11;;;;;;;13.77;4.70;;;11.10;99.90;;;;;;5090301;28;20446;-66
2021/12/30 09:46:37;;;;;;;14.95;4.40;;;11.20;99.90;;;;;;5090143;28;20064;-67
2021/12/30 09:49:06;;;;;;;19.35;4.05;;;11.30;99.90;;;;;;5091706;28;20047;-66
2021/12/30 09:51:32;;;;;;;17.20;4.32;;;11.20;99.90;;;;;;5090307;28;20116;-66
2021/12/30 09:53:58;;;;;;;19.35;4.80;;;11.20;99.90;;;;;;5092777;28;20044;-76
2021/12/30 09:56:24;;;;;;;21.83;5.00;;;11.30;99.90;;;;;;5090592;28;20139;-69
2021/12/30 09:58:50;;;;;;;25.65;5.03;;;11.40;99.90;;;;;;5108106;28;20454;-65
2021/12/30 10:01:15;;;;;;;18.83;4.72;;;11.30;99.90;;;;;;5091627;28;20051;-65
2021/12/30 10:03:42;;;;;;;17.13;4.57;;;11.30;99.90;;;;;;5089965;28;20044;-65
2021/12/30 10:06:14;;;;;;;23.83;5.28;;;11.30;99.90;;;;;;5077758;28;20376;-65
2021/12/30 10:08:56;;;;;;;14.15;4.32;;;11.40;99.90;;;;;;5095948;28;20043;-65
2021/12/30 10:11:22;;;;;;;14.43;3.47;;;11.50;99.90;;;;;;5113289;28;20043;-65
2021/12/30 10:13:51;;;;;;;22.00;4.45;;;11.40;99.90;;;;;;5094805;28;20048;-65
2021/12/30 10:16:17;;;;;;;20.10;5.20;;;11.30;99.90;;;;;;5090859;28;20035;-67
2021/12/30 10:18:47;;;;;;;21.65;5.45;;;11.40;99.90;;;;;;5091037;28;20094;-69
2021/12/30 10:21:22;;;;;;;20.95;5.00;;;11.30;99.90;;;;;;5098260;28;20480;-74
2021/12/30 10:23:52;;;;;;;21.13;5.15;;;11.50;99.90;;;;;;5088270;28;20535;-74
2021/12/30 10:26:18;;;;;;;23.77;4.80;;;11.30;99.90;;;;;;5091281;28;20059;-75
2021/12/30 10:28:44;;;;;;;17.35;4.32;;;11.50;99.90;;;;;;5091724;28;20490;-74
2021/12/30 10:31:13;;;;;;;28.02;5.43;;;11.30;99.90;;;;;;5085061;28;20063;-74
2021/12/30 10:33:47;;;;;;;20.98;4.78;;;11.30;99.90;;;;;;5081736;28;20044;-74
2021/12/30 10:36:18;;;;;;;20.08;3.90;;;11.30;99.90;;;;;;5090575;28;20056;-73
2021/12/30 10:38:44;;;;;;;15.68;4.35;;;11.40;99.90;;;;;;5089758;28;20127;-73
2021/12/30 10:41:10;;;;;;;20.85;4.78;;;11.40;99.90;;;;;;5091824;28;20194;-74
2021/12/30 10:43:46;;;;;;;20.60;5.05;;;11.30;99.90;;;;;;5090595;28;20036;-74
2021/12/30 10:46:23;;;;;;;15.98;4.18;;;11.40;99.90;;;;;;5090246;28;20048;-73
2021/12/30 10:48:51;;;;;;;21.67;4.88;;;11.40;99.90;;;;;;5087738;28;20493;-74
2021/12/30 10:51:22;;;;;;;21.17;3.97;;;11.30;99.90;;;;;;5108511;27;20426;-74
2021/12/30 10:53:50;;;;;;;24.25;5.88;;;11.30;99.90;;;;;;5085601;28;20127;-73
2021/12/30 10:56:23;;;;;;;23.10;5.90;;;11.40;99.90;;;;;;5080313;28;20397;-73
2021/12/30 10:58:50;;;;;;;24.65;6.05;;;11.30;99.90;;;;;;5082667;28;20451;-74
2021/12/30 11:01:21;;;;;;;25.63;5.25;;;11.30;99.90;;;;;;5090124;28;20376;-74
2021/12/30 11:03:59;;;;;;;36.33;6.50;;;11.20;99.90;;;;;;5090208;28;20130;-74
2021/12/30 11:06:25;;;;;;;24.65;5.13;;;11.40;99.90;;;;;;5089585;28;20548;-73
2021/12/30 11:09:05;;;;;;;29.30;6.57;;;11.20;99.90;;;;;;5088660;28;20044;-73
2021/12/30 11:11:30;;;;;;;37.38;8.75;;;11.30;99.90;;;;;;5091180;28;20036;-73
2021/12/30 11:14:09;;;;;;;23.52;5.65;;;11.30;99.90;;;;;;5088557;28;20044;-73
2021/12/30 11:16:53;;;;;;;30.65;6.93;;;11.30;99.90;;;;;;5088790;28;20039;-73
2021/12/30 11:19:21;;;;;;;36.30;7.63;;;11.30;99.90;;;;;;5086354;28;20088;-73
2021/12/30 11:21:48;;;;;;;40.65;9.05;;;11.50;99.90;;;;;;5089645;28;20547;-73
2021/12/30 11:24:13;;;;;;;46.00;7.90;;;11.50;99.90;;;;;;5090928;28;20166;-73
2021/12/30 11:26:39;;;;;;;41.17;8.10;;;11.50;99.90;;;;;;5090280;28;20502;-73
2021/12/30 11:29:06;;;;;;;25.98;6.50;;;11.50;99.90;;;;;;5091283;28;20051;-73
2021/12/30 11:31:33;;;;;;;36.30;7.75;;;11.40;99.90;;;;;;5103942;28;20032;-73
2021/12/30 11:33:59;;;;;;;35.95;8.30;;;11.40;99.90;;;;;;5089161;28;20101;-73
2021/12/30 11:36:28;;;;;;;33.33;8.52;;;11.40;99.90;;;;;;5089836;28;20055;-73
2021/12/30 11:38:56;;;;;;;38.15;7.35;;;11.40;99.90;;;;;;5089842;28;20087;-73
2021/12/30 11:41:25;;;;;;;38.30;7.93;;;11.50;99.90;;;;;;5088946;28;20048;-75
2021/12/30 11:43:50;;;;;;;40.05;8.77;;;11.50;99.90;;;;;;5102247;28;20491;-73
2021/12/30 11:46:41;;;;;;;38.60;8.55;;;11.40;99.90;;;;;;5091122;28;20083;-73
2021/12/30 11:49:11;;;;;;;39.58;7.50;;;11.60;99.90;;;;;;5090068;28;20043;-72
2021/12/30 11:51:51;;;;;;;33.60;7.97;;;11.50;99.90;;;;;;5089368;28;20048;-72
2021/12/30 11:54:36;;;;;;;36.10;6.60;;;11.50;99.90;;;;;;5091359;28;20048;-69
2021/12/30 11:57:31;;;;;;;33.30;7.15;;;11.60;99.90;;;;;;5103782;28;20113;-70
2021/12/30 12:00:18;;;;;;;45.22;8.02;;;11.70;99.90;;;;;;5086545;28;20040;-71
2021/12/30 12:02:44;;;;;;;31.48;7.85;;;11.60;99.90;;;;;;5068301;28;20045;-71
2021/12/30 12:05:41;;;;;;;34.65;7.88;;;11.60;99.90;;;;;;5070245;28;20410;-71
2021/12/30 12:08:12;;;;;;;39.78;8.52;;;11.60;99.90;;;;;;5074456;28;20513;-72
2021/12/30 12:10:40;;;;;;;41.20;7.47;;;11.50;99.90;;;;;;5072322;28;20052;-71
2021/12/30 12:13:36;;;;;;;31.92;6.85;;;11.70;99.90;;;;;;5097635;28;20051;-72
2021/12/30 12:16:03;;;;;;;28.33;8.00;;;11.70;99.90;;;;;;5093446;28;20048;-70
2021/12/30 12:18:30;;;;;;;39.95;8.25;;;11.60;99.90;;;;;;5091925;28;20044;-74
2021/12/30 12:21:03;;;;;;;35.00;7.93;;;11.60;99.90;;;;;;5096289;28;20051;-74
2021/12/30 12:23:32;;;;;;;;;;;11.70;99.90;;;;;;5090601;28;20040;-74
2021/12/30 12:26:05;;;;;;;30.42;7.15;;;11.60;99.90;;;;;;5090840;28;19973;-73
2021/12/30 12:28:31;;;;;;;33.65;8.55;;;11.50;99.90;;;;;;5085974;28;20055;-76
2021/12/30 12:30:57;;;;;;;37.00;8.05;;;11.70;99.90;;;;;;5086413;28;20044;-72
2021/12/30 12:33:24;;;;;;;33.42;9.02;;;11.60;99.90;;;;;;5094871;28;20483;-73
2021/12/30 12:35:50;;;;;;;46.35;9.02;;;11.50;99.90;;;;;;5099278;28;20454;-69
2021/12/30 12:38:42;;;;;;;30.75;7.97;;;11.60;99.90;;;;;;5093284;28;20135;-78
2021/12/30 12:41:29;;;;;;;48.40;9.63;;;11.50;99.90;;;;;;5087181;28;20507;-73
2021/12/30 12:44:07;;;;;;;33.20;6.93;;;11.50;99.90;;;;;;5107207;28;20054;-71